createdAt,value
2018-01-16T00:00:38.294Z,976.27
2018-01-16T00:01:38.287Z,976.18
2018-01-16T00:02:38.281Z,976.17
2018-01-16T00:03:38.274Z,976.18
2018-01-16T00:04:38.267Z,976.2
2018-01-16T00:05:38.260Z,976.13
2018-01-16T00:06:38.255Z,976.09
2018-01-16T00:07:38.247Z,976.01
2018-01-16T00:08:38.240Z,975.98
2018-01-16T00:09:38.235Z,976
2018-01-16T00:10:38.228Z,976.1
2018-01-16T00:11:38.224Z,976.09
2018-01-16T00:12:38.212Z,976.04
2018-01-16T00:13:38.206Z,976.05
2018-01-16T00:14:38.201Z,976
2018-01-16T00:15:38.196Z,975.99
2018-01-16T00:16:38.637Z,975.87
2018-01-16T00:17:38.180Z,975.88
2018-01-16T00:18:38.173Z,975.84
2018-01-16T00:19:38.170Z,975.89
2018-01-16T00:20:38.159Z,975.9
2018-01-16T00:21:38.153Z,975.81
2018-01-16T00:22:38.195Z,975.82
2018-01-16T00:23:38.141Z,975.76
2018-01-16T00:24:38.133Z,975.84
2018-01-16T00:25:38.127Z,975.8
2018-01-16T00:26:38.121Z,975.86
2018-01-16T00:27:38.116Z,975.85
2018-01-16T00:28:38.105Z,975.85
2018-01-16T00:29:38.101Z,975.85
2018-01-16T00:30:38.093Z,975.77
2018-01-16T00:31:38.088Z,975.75
2018-01-16T00:32:38.080Z,975.74
2018-01-16T00:33:38.075Z,975.69
2018-01-16T00:34:38.069Z,975.67
2018-01-16T00:35:38.062Z,975.74
2018-01-16T00:36:38.067Z,975.68
2018-01-16T00:37:38.047Z,975.63
2018-01-16T00:38:38.041Z,975.61
2018-01-16T00:39:38.034Z,975.57
2018-01-16T00:40:38.028Z,975.56
2018-01-16T00:41:38.022Z,975.56
2018-01-16T00:42:38.015Z,975.51
2018-01-16T00:43:38.007Z,975.52
2018-01-16T00:44:38.004Z,975.58
2018-01-16T00:45:37.997Z,975.53
2018-01-16T00:46:37.990Z,975.55
2018-01-16T00:47:37.988Z,975.42
2018-01-16T00:48:37.976Z,975.5
2018-01-16T00:49:37.970Z,975.47
2018-01-16T00:50:37.964Z,975.47
2018-01-16T00:51:37.956Z,975.41
2018-01-16T00:52:37.950Z,975.42
2018-01-16T00:53:37.952Z,975.45
2018-01-16T00:54:37.964Z,975.44
2018-01-16T00:55:37.946Z,975.41
2018-01-16T00:56:37.933Z,975.36
2018-01-16T00:57:37.920Z,975.41
2018-01-16T00:58:37.916Z,975.37
2018-01-16T00:59:37.915Z,975.34
2018-01-16T01:00:37.909Z,975.35
2018-01-16T01:01:37.892Z,975.3
2018-01-16T01:02:37.887Z,975.32
2018-01-16T01:03:37.877Z,975.32
2018-01-16T01:04:37.871Z,975.27
2018-01-16T01:05:37.866Z,975.33
2018-01-16T01:06:37.861Z,975.27
2018-01-16T01:07:37.856Z,975.22
2018-01-16T01:08:37.852Z,975.3
2018-01-16T01:09:37.851Z,975.27
2018-01-16T01:10:37.834Z,975.33
2018-01-16T01:11:37.827Z,975.27
2018-01-16T01:12:37.821Z,975.2
2018-01-16T01:13:37.818Z,975.25
2018-01-16T01:14:37.810Z,975.33
2018-01-16T01:15:37.805Z,975.32
2018-01-16T01:16:37.797Z,975.3
2018-01-16T01:17:38.039Z,975.31
2018-01-16T01:18:37.784Z,975.31
2018-01-16T01:19:37.784Z,975.28
2018-01-16T01:20:37.771Z,975.26
2018-01-16T01:21:37.765Z,975.23
2018-01-16T01:22:37.757Z,975.25
2018-01-16T01:23:37.752Z,975.26
2018-01-16T01:24:37.745Z,975.23
2018-01-16T01:25:37.738Z,975.24
2018-01-16T01:26:37.732Z,975.18
2018-01-16T01:27:37.727Z,975.23
2018-01-16T01:28:37.719Z,975.14
2018-01-16T01:29:37.713Z,975.21
2018-01-16T01:30:37.709Z,975.2
2018-01-16T01:31:37.702Z,975.2
2018-01-16T01:32:40.397Z,975.19
2018-01-16T01:33:37.691Z,975.15
2018-01-16T01:34:37.683Z,975.16
2018-01-16T01:35:37.675Z,975.12
2018-01-16T01:36:37.669Z,975.17
2018-01-16T01:37:37.666Z,975.17
2018-01-16T01:38:37.709Z,975.08
2018-01-16T01:39:37.658Z,975.03
2018-01-16T01:40:37.645Z,975.08
2018-01-16T01:41:37.639Z,975.07
2018-01-16T01:42:37.633Z,975.07
2018-01-16T01:43:37.634Z,975.13
2018-01-16T01:44:37.626Z,975.15
2018-01-16T01:45:37.614Z,975.13
2018-01-16T01:46:37.610Z,975.15
2018-01-16T01:47:37.600Z,975.02
2018-01-16T01:48:37.597Z,975.1
2018-01-16T01:49:37.590Z,975.11
2018-01-16T01:50:37.582Z,975.11
2018-01-16T01:51:37.576Z,975.06
2018-01-16T01:52:37.571Z,975.11
2018-01-16T01:53:37.564Z,975.03
2018-01-16T01:54:37.560Z,975.13
2018-01-16T01:55:37.553Z,975.11
2018-01-16T01:56:37.544Z,975.17
2018-01-16T01:57:37.540Z,975.08
2018-01-16T01:58:37.532Z,975.13
2018-01-16T01:59:37.527Z,975.13
2018-01-16T02:00:37.520Z,975.18
2018-01-16T02:01:37.513Z,975.15
2018-01-16T02:02:37.507Z,975.17
2018-01-16T02:03:37.505Z,975.13
2018-01-16T02:04:37.499Z,975.16
2018-01-16T02:05:37.490Z,975.15
2018-01-16T02:06:37.483Z,975.1
2018-01-16T02:07:37.480Z,975.1
2018-01-16T02:08:37.472Z,975.06
2018-01-16T02:09:37.474Z,975.07
2018-01-16T02:10:37.469Z,975.02
2018-01-16T02:11:37.454Z,975.07
2018-01-16T02:12:37.445Z,975.07
2018-01-16T02:13:37.440Z,975.05
2018-01-16T02:14:37.437Z,975.06
2018-01-16T02:15:37.428Z,975.02
2018-01-16T02:16:37.422Z,975.03
2018-01-16T02:17:37.419Z,974.99
2018-01-16T02:18:37.961Z,975.05
2018-01-16T02:19:37.413Z,975.02
2018-01-16T02:20:37.398Z,975.06
2018-01-16T02:21:37.392Z,975.08
2018-01-16T02:22:37.387Z,975.19
2018-01-16T02:23:37.382Z,975.2
2018-01-16T02:24:37.383Z,975.15
2018-01-16T02:25:37.370Z,975.17
2018-01-16T02:26:37.365Z,975.21
2018-01-16T02:27:37.374Z,975.21
2018-01-16T02:28:37.350Z,975.22
2018-01-16T02:29:37.344Z,975.26
2018-01-16T02:30:37.342Z,975.18
2018-01-16T02:31:37.333Z,975.15
2018-01-16T02:32:37.328Z,975.18
2018-01-16T02:33:39.190Z,975.1
2018-01-16T02:34:37.334Z,975.12
2018-01-16T02:35:37.309Z,975.12
2018-01-16T02:36:37.310Z,975.08
2018-01-16T02:37:37.303Z,974.98
2018-01-16T02:38:37.291Z,974.98
2018-01-16T02:39:37.288Z,974.85
2018-01-16T02:40:37.281Z,974.91
2018-01-16T02:41:37.275Z,975.03
2018-01-16T02:42:37.272Z,975
2018-01-16T02:43:37.272Z,974.99
2018-01-16T02:44:37.267Z,975.04
2018-01-16T02:45:37.252Z,974.93
2018-01-16T02:46:37.277Z,974.89
2018-01-16T02:47:37.241Z,974.95
2018-01-16T02:48:37.244Z,975
2018-01-16T02:49:37.233Z,975.02
2018-01-16T02:50:37.224Z,974.94
2018-01-16T02:51:37.217Z,974.99
2018-01-16T02:52:37.211Z,974.96
2018-01-16T02:53:37.205Z,974.92
2018-01-16T02:54:37.202Z,974.92
2018-01-16T02:55:37.194Z,974.99
2018-01-16T02:56:37.187Z,974.94
2018-01-16T02:57:37.182Z,975
2018-01-16T02:58:37.180Z,974.97
2018-01-16T02:59:37.173Z,975.01
2018-01-16T03:00:37.164Z,974.88
2018-01-16T03:01:37.159Z,974.9
2018-01-16T03:02:37.153Z,974.94
2018-01-16T03:03:37.156Z,974.91
2018-01-16T03:04:37.142Z,974.89
2018-01-16T03:05:37.136Z,974.78
2018-01-16T03:06:37.131Z,974.76
2018-01-16T03:07:37.125Z,974.79
2018-01-16T03:08:37.117Z,974.71
2018-01-16T03:09:37.112Z,974.74
2018-01-16T03:10:37.109Z,974.75
2018-01-16T03:11:37.106Z,974.71
2018-01-16T03:12:37.107Z,974.63
2018-01-16T03:13:37.094Z,974.67
2018-01-16T03:14:37.081Z,974.6
2018-01-16T03:15:37.076Z,974.62
2018-01-16T03:16:37.070Z,974.56
2018-01-16T03:17:37.066Z,974.57
2018-01-16T03:18:37.058Z,974.57
2018-01-16T03:19:37.052Z,974.44
2018-01-16T03:20:37.046Z,974.49
2018-01-16T03:21:37.042Z,974.49
2018-01-16T03:22:37.034Z,974.43
2018-01-16T03:23:37.029Z,974.46
2018-01-16T03:24:37.031Z,974.39
2018-01-16T03:25:37.017Z,974.41
2018-01-16T03:26:37.013Z,974.37
2018-01-16T03:27:37.004Z,974.32
2018-01-16T03:28:36.999Z,974.34
2018-01-16T03:29:36.992Z,974.3
2018-01-16T03:30:36.986Z,974.3
2018-01-16T03:31:36.983Z,974.37
2018-01-16T03:32:36.975Z,974.34
2018-01-16T03:33:36.968Z,974.33
2018-01-16T03:34:36.962Z,974.31
2018-01-16T03:35:36.956Z,974.25
2018-01-16T03:36:36.949Z,974.32
2018-01-16T03:37:36.947Z,974.35
2018-01-16T03:38:36.938Z,974.31
2018-01-16T03:39:36.932Z,974.34
2018-01-16T03:40:36.924Z,974.23
2018-01-16T03:41:36.920Z,974.18
2018-01-16T03:42:36.914Z,974.18
2018-01-16T03:43:36.916Z,974.15
2018-01-16T03:44:36.902Z,974.14
2018-01-16T03:45:36.895Z,974.15
2018-01-16T03:46:36.894Z,974.09
2018-01-16T03:47:36.894Z,974.08
2018-01-16T03:48:36.876Z,974.11
2018-01-16T03:49:36.871Z,974.07
2018-01-16T03:50:36.874Z,973.97
2018-01-16T03:51:36.859Z,973.98
2018-01-16T03:52:36.854Z,973.87
2018-01-16T03:53:36.848Z,973.91
2018-01-16T03:54:36.845Z,973.96
2018-01-16T03:55:36.837Z,973.98
2018-01-16T03:56:36.835Z,973.87
2018-01-16T03:57:36.826Z,973.85
2018-01-16T03:58:36.818Z,973.76
2018-01-16T03:59:36.811Z,973.68
2018-01-16T04:00:36.806Z,973.62
2018-01-16T04:01:36.800Z,973.62
2018-01-16T04:02:36.793Z,973.73
2018-01-16T04:03:36.787Z,973.72
2018-01-16T04:04:36.781Z,973.64
2018-01-16T04:05:36.777Z,973.68
2018-01-16T04:06:36.768Z,973.77
2018-01-16T04:07:36.763Z,973.78
2018-01-16T04:08:36.757Z,973.66
2018-01-16T04:09:36.750Z,973.63
2018-01-16T04:10:36.748Z,973.53
2018-01-16T04:11:36.738Z,973.62
2018-01-16T04:12:36.731Z,973.58
2018-01-16T04:13:36.723Z,973.63
2018-01-16T04:14:36.717Z,973.69
2018-01-16T04:15:36.713Z,973.61
2018-01-16T04:16:36.710Z,973.56
2018-01-16T04:17:36.698Z,973.55
2018-01-16T04:18:36.692Z,973.45
2018-01-16T04:19:36.686Z,973.45
2018-01-16T04:20:36.678Z,973.33
2018-01-16T04:21:36.672Z,973.31
2018-01-16T04:22:36.666Z,973.29
2018-01-16T04:23:36.660Z,973.32
2018-01-16T04:24:36.653Z,973.37
2018-01-16T04:25:36.649Z,973.46
2018-01-16T04:26:36.641Z,973.39
2018-01-16T04:27:36.633Z,973.44
2018-01-16T04:28:36.628Z,973.38
2018-01-16T04:29:36.619Z,973.32
2018-01-16T04:30:36.614Z,973.35
2018-01-16T04:31:36.608Z,973.24
2018-01-16T04:32:36.599Z,973.22
2018-01-16T04:33:36.592Z,973.17
2018-01-16T04:34:36.586Z,973.18
2018-01-16T04:35:36.578Z,973.16
2018-01-16T04:36:36.573Z,973.11
2018-01-16T04:37:36.567Z,973.15
2018-01-16T04:38:36.558Z,973.22
2018-01-16T04:39:36.554Z,973.19
2018-01-16T04:40:36.553Z,973.08
2018-01-16T04:41:36.547Z,973.07
2018-01-16T04:42:36.533Z,973.07
2018-01-16T04:43:36.526Z,973.1
2018-01-16T04:44:36.520Z,972.99
2018-01-16T04:45:36.514Z,973.06
2018-01-16T04:46:36.508Z,973.01
2018-01-16T04:47:36.501Z,973.03
2018-01-16T04:48:36.500Z,972.97
2018-01-16T04:49:36.786Z,973
2018-01-16T04:50:36.481Z,972.97
2018-01-16T04:51:36.475Z,972.99
2018-01-16T04:52:36.470Z,972.96
2018-01-16T04:53:36.462Z,972.99
2018-01-16T04:54:36.469Z,972.96
2018-01-16T04:55:36.475Z,973.02
2018-01-16T04:56:36.449Z,972.92
2018-01-16T04:57:36.437Z,972.98
2018-01-16T04:58:36.431Z,972.9
2018-01-16T04:59:36.434Z,972.79
2018-01-16T05:00:36.418Z,972.85
2018-01-16T05:01:36.413Z,972.75
2018-01-16T05:02:36.414Z,972.86
2018-01-16T05:03:36.415Z,972.84
2018-01-16T05:04:36.416Z,972.86
2018-01-16T05:05:36.390Z,972.89
2018-01-16T05:06:36.383Z,972.83
2018-01-16T05:07:36.377Z,972.86
2018-01-16T05:08:36.372Z,972.83
2018-01-16T05:09:36.367Z,972.79
2018-01-16T05:10:36.358Z,972.67
2018-01-16T05:11:36.351Z,972.64
2018-01-16T05:12:36.345Z,972.65
2018-01-16T05:13:36.341Z,972.62
2018-01-16T05:14:36.334Z,972.65
2018-01-16T05:15:36.328Z,972.68
2018-01-16T05:16:36.326Z,972.71
2018-01-16T05:17:36.315Z,972.66
2018-01-16T05:18:36.315Z,972.48
2018-01-16T05:19:38.355Z,972.51
2018-01-16T05:20:36.296Z,972.44
2018-01-16T05:21:36.291Z,972.45
2018-01-16T05:22:36.285Z,972.46
2018-01-16T05:23:36.279Z,972.4
2018-01-16T05:24:36.273Z,972.34
2018-01-16T05:25:36.279Z,972.28
2018-01-16T05:26:36.260Z,972.25
2018-01-16T05:27:36.278Z,972.29
2018-01-16T05:28:36.248Z,972.1
2018-01-16T05:29:36.242Z,972.07
2018-01-16T05:30:36.242Z,972.11
2018-01-16T05:31:36.233Z,972.15
2018-01-16T05:32:36.232Z,971.95
2018-01-16T05:33:36.216Z,971.97
2018-01-16T05:34:36.210Z,972.08
2018-01-16T05:35:36.204Z,972.2
2018-01-16T05:36:36.221Z,972.34
2018-01-16T05:37:36.189Z,972.2
2018-01-16T05:38:36.185Z,972.18
2018-01-16T05:39:36.179Z,972.17
2018-01-16T05:40:36.172Z,972.22
2018-01-16T05:41:36.168Z,972.03
2018-01-16T05:42:36.160Z,972.09
2018-01-16T05:43:36.154Z,972.11
2018-01-16T05:44:36.147Z,972.25
2018-01-16T05:45:36.141Z,972.12
2018-01-16T05:46:36.137Z,972.03
2018-01-16T05:47:36.130Z,972.02
2018-01-16T05:48:36.122Z,972.07
2018-01-16T05:49:36.116Z,971.95
2018-01-16T05:50:36.164Z,972.03
2018-01-16T05:51:36.110Z,972.2
2018-01-16T05:52:36.098Z,972.08
2018-01-16T05:53:36.096Z,971.94
2018-01-16T05:54:36.086Z,972
2018-01-16T05:55:36.078Z,971.96
2018-01-16T05:56:36.076Z,972.08
2018-01-16T05:57:36.068Z,972.02
2018-01-16T05:58:36.061Z,972.03
2018-01-16T05:59:36.058Z,972.06
2018-01-16T06:00:36.049Z,971.98
2018-01-16T06:01:36.068Z,971.97
2018-01-16T06:02:36.041Z,971.96
2018-01-16T06:03:36.031Z,971.98
2018-01-16T06:04:36.028Z,971.96
2018-01-16T06:05:36.019Z,971.91
2018-01-16T06:06:36.017Z,971.95
2018-01-16T06:07:36.006Z,971.88
2018-01-16T06:08:36.000Z,971.75
2018-01-16T06:09:35.994Z,971.74
2018-01-16T06:10:35.988Z,971.61
2018-01-16T06:11:35.987Z,971.59
2018-01-16T06:12:35.976Z,971.63
2018-01-16T06:13:35.970Z,971.63
2018-01-16T06:14:35.963Z,971.68
2018-01-16T06:15:35.957Z,971.66
2018-01-16T06:16:35.956Z,971.56
2018-01-16T06:17:35.944Z,971.65
2018-01-16T06:18:35.938Z,971.71
2018-01-16T06:19:35.933Z,971.71
2018-01-16T06:20:35.927Z,971.67
2018-01-16T06:21:35.936Z,971.63
2018-01-16T06:22:35.916Z,971.62
2018-01-16T06:23:35.910Z,971.72
2018-01-16T06:24:35.902Z,971.8
2018-01-16T06:25:35.897Z,971.84
2018-01-16T06:26:35.902Z,971.89
2018-01-16T06:27:35.889Z,971.86
2018-01-16T06:28:35.889Z,971.87
2018-01-16T06:29:35.873Z,971.91
2018-01-16T06:30:35.871Z,971.91
2018-01-16T06:31:35.876Z,971.95
2018-01-16T06:32:35.856Z,971.88
2018-01-16T06:33:35.857Z,971.85
2018-01-16T06:34:35.849Z,971.95
2018-01-16T06:35:36.891Z,972
2018-01-16T06:36:35.840Z,971.97
2018-01-16T06:37:35.829Z,971.98
2018-01-16T06:38:35.824Z,971.96
2018-01-16T06:39:35.815Z,971.9
2018-01-16T06:40:35.814Z,972.02
2018-01-16T06:41:35.822Z,972.03
2018-01-16T06:42:35.802Z,972.06
2018-01-16T06:43:35.799Z,971.95
2018-01-16T06:44:35.786Z,972.08
2018-01-16T06:45:35.778Z,972.09
2018-01-16T06:46:35.780Z,972.12
2018-01-16T06:47:35.766Z,972.16
2018-01-16T06:48:35.763Z,972.14
2018-01-16T06:49:35.755Z,972.11
2018-01-16T06:50:35.755Z,972.12
2018-01-16T06:51:35.763Z,972.15
2018-01-16T06:52:35.737Z,972.14
2018-01-16T06:53:35.727Z,972.16
2018-01-16T06:54:35.723Z,972.17
2018-01-16T06:55:35.719Z,972.25
2018-01-16T06:56:35.717Z,972.24
2018-01-16T06:57:35.754Z,972.31
2018-01-16T06:58:35.704Z,972.33
2018-01-16T06:59:35.701Z,972.37
2018-01-16T07:00:35.698Z,972.33
2018-01-16T07:01:35.710Z,972.31
2018-01-16T07:02:35.673Z,972.33
2018-01-16T07:03:35.671Z,972.33
2018-01-16T07:04:35.660Z,972.39
2018-01-16T07:05:35.656Z,972.29
2018-01-16T07:06:35.659Z,972.39
2018-01-16T07:07:35.643Z,972.34
2018-01-16T07:08:35.641Z,972.38
2018-01-16T07:09:35.639Z,972.46
2018-01-16T07:10:35.624Z,972.33
2018-01-16T07:11:35.672Z,972.38
2018-01-16T07:12:35.612Z,972.32
2018-01-16T07:13:35.607Z,972.29
2018-01-16T07:14:35.599Z,972.25
2018-01-16T07:15:35.594Z,972.32
2018-01-16T07:16:35.596Z,972.36
2018-01-16T07:17:35.586Z,972.35
2018-01-16T07:18:35.587Z,972.3
2018-01-16T07:19:35.589Z,972.3
2018-01-16T07:20:35.563Z,972.25
2018-01-16T07:21:35.561Z,972.32
2018-01-16T07:22:35.555Z,972.31
2018-01-16T07:23:35.546Z,972.3
2018-01-16T07:24:35.538Z,972.32
2018-01-16T07:25:35.534Z,972.33
2018-01-16T07:26:35.537Z,972.35
2018-01-16T07:27:35.522Z,972.38
2018-01-16T07:28:35.518Z,972.5
2018-01-16T07:29:35.511Z,972.47
2018-01-16T07:30:35.505Z,972.49
2018-01-16T07:31:35.511Z,972.48
2018-01-16T07:32:35.495Z,972.47
2018-01-16T07:33:35.489Z,972.53
2018-01-16T07:34:35.488Z,972.46
2018-01-16T07:35:35.479Z,972.57
2018-01-16T07:36:35.480Z,972.6
2018-01-16T07:37:35.466Z,972.59
2018-01-16T07:38:35.458Z,972.67
2018-01-16T07:39:35.454Z,972.66
2018-01-16T07:40:35.452Z,972.63
2018-01-16T07:41:35.461Z,972.61
2018-01-16T07:42:35.443Z,972.72
2018-01-16T07:43:35.441Z,972.62
2018-01-16T07:44:35.440Z,972.6
2018-01-16T07:45:35.417Z,972.55
2018-01-16T07:46:35.431Z,972.54
2018-01-16T07:47:35.407Z,972.64
2018-01-16T07:48:35.402Z,972.65
2018-01-16T07:49:35.397Z,972.73
2018-01-16T07:50:35.389Z,972.75
2018-01-16T07:51:35.963Z,972.75
2018-01-16T07:52:35.385Z,972.8
2018-01-16T07:53:35.387Z,972.71
2018-01-16T07:54:35.368Z,972.67
2018-01-16T07:55:35.363Z,972.73
2018-01-16T07:56:35.372Z,972.84
2018-01-16T07:57:35.364Z,972.95
2018-01-16T07:58:35.345Z,972.96
2018-01-16T07:59:35.339Z,972.95
2018-01-16T08:00:35.334Z,972.99
2018-01-16T08:01:35.334Z,972.96
2018-01-16T08:02:35.323Z,972.96
2018-01-16T08:03:35.319Z,973.02
2018-01-16T08:04:35.311Z,973.16
2018-01-16T08:05:35.306Z,973.35
2018-01-16T08:06:35.303Z,973.26
2018-01-16T08:07:35.304Z,973.16
2018-01-16T08:08:35.292Z,973.15
2018-01-16T08:09:35.286Z,973.2
2018-01-16T08:10:35.281Z,973.21
2018-01-16T08:11:35.294Z,973.1
2018-01-16T08:12:35.268Z,973.14
2018-01-16T08:13:35.263Z,973.26
2018-01-16T08:14:35.255Z,973.18
2018-01-16T08:15:35.250Z,973.35
2018-01-16T08:16:35.258Z,973.31
2018-01-16T08:17:35.238Z,973.49
2018-01-16T08:18:35.236Z,973.42
2018-01-16T08:19:35.226Z,973.48
2018-01-16T08:20:35.222Z,973.51
2018-01-16T08:21:35.218Z,973.44
2018-01-16T08:22:35.215Z,973.47
2018-01-16T08:23:35.203Z,973.57
2018-01-16T08:24:35.200Z,973.5
2018-01-16T08:25:35.190Z,973.42
2018-01-16T08:26:35.196Z,973.33
2018-01-16T08:27:35.180Z,973.41
2018-01-16T08:28:35.175Z,973.5
2018-01-16T08:29:35.168Z,973.47
2018-01-16T08:30:35.161Z,973.53
2018-01-16T08:31:35.156Z,973.36
2018-01-16T08:32:35.149Z,973.36
2018-01-16T08:33:35.143Z,973.47
2018-01-16T08:34:35.141Z,973.48
2018-01-16T08:35:35.131Z,973.31
2018-01-16T08:36:35.176Z,973.4
2018-01-16T08:37:35.120Z,973.4
2018-01-16T08:38:35.120Z,973.41
2018-01-16T08:39:35.110Z,973.37
2018-01-16T08:40:35.102Z,973.4
2018-01-16T08:41:35.097Z,973.4
2018-01-16T08:42:35.091Z,973.35
2018-01-16T08:43:35.086Z,973.29
2018-01-16T08:44:35.082Z,973.32
2018-01-16T08:45:35.076Z,973.31
2018-01-16T08:46:35.070Z,973.34
2018-01-16T08:47:35.063Z,973.45
2018-01-16T08:48:35.058Z,973.48
2018-01-16T08:49:35.056Z,973.49
2018-01-16T08:50:35.048Z,973.47
2018-01-16T08:51:35.091Z,973.5
2018-01-16T08:52:35.036Z,973.45
2018-01-16T08:53:35.031Z,973.38
2018-01-16T08:54:35.026Z,973.35
2018-01-16T08:55:35.020Z,973.45
2018-01-16T08:56:35.018Z,973.33
2018-01-16T08:57:35.011Z,973.32
2018-01-16T08:58:35.015Z,973.27
2018-01-16T08:59:34.999Z,973.3
2018-01-16T09:00:34.994Z,973.35
2018-01-16T09:01:34.989Z,973.39
2018-01-16T09:02:34.989Z,973.41
2018-01-16T09:03:34.978Z,973.38
2018-01-16T09:04:34.974Z,973.32
2018-01-16T09:05:34.968Z,973.32
2018-01-16T09:06:34.962Z,973.33
2018-01-16T09:07:34.959Z,973.35
2018-01-16T09:08:34.958Z,973.36
2018-01-16T09:09:34.947Z,973.4
2018-01-16T09:10:34.944Z,973.48
2018-01-16T09:11:34.938Z,973.41
2018-01-16T09:12:34.935Z,973.38
2018-01-16T09:13:34.928Z,973.41
2018-01-16T09:14:34.923Z,973.45
2018-01-16T09:15:34.918Z,973.4
2018-01-16T09:16:34.912Z,973.33
2018-01-16T09:17:34.908Z,973.21
2018-01-16T09:18:34.903Z,973.26
2018-01-16T09:19:34.899Z,973.3
2018-01-16T09:20:34.899Z,973.38
2018-01-16T09:21:34.892Z,973.42
2018-01-16T09:22:34.883Z,973.26
2018-01-16T09:23:34.879Z,973.32
2018-01-16T09:24:34.876Z,973.46
2018-01-16T09:25:34.871Z,973.44
2018-01-16T09:26:34.866Z,973.41
2018-01-16T09:27:34.859Z,973.5
2018-01-16T09:28:34.855Z,973.4
2018-01-16T09:29:34.850Z,973.38
2018-01-16T09:30:34.856Z,973.53
2018-01-16T09:31:34.843Z,973.44
2018-01-16T09:32:34.848Z,973.38
2018-01-16T09:33:34.847Z,973.3
2018-01-16T09:34:34.830Z,973.11
2018-01-16T09:35:34.842Z,973.14
2018-01-16T09:36:34.817Z,973.28
2018-01-16T09:37:34.813Z,973.45
2018-01-16T09:38:34.809Z,973.3
2018-01-16T09:39:34.804Z,973.44
2018-01-16T09:40:34.797Z,973.31
2018-01-16T09:41:34.794Z,973.31
2018-01-16T09:42:34.789Z,973.51
2018-01-16T09:43:34.783Z,973.55
2018-01-16T09:44:34.778Z,973.59
2018-01-16T09:45:34.773Z,973.57
2018-01-16T09:46:34.768Z,973.53
2018-01-16T09:47:35.564Z,973.42
2018-01-16T09:48:34.762Z,973.35
2018-01-16T09:49:34.759Z,973.31
2018-01-16T09:50:34.758Z,973.3
2018-01-16T09:51:34.745Z,973.32
2018-01-16T09:52:34.739Z,973.46
2018-01-16T09:53:34.742Z,973.47
2018-01-16T09:54:34.733Z,973.47
2018-01-16T09:55:34.734Z,973.33
2018-01-16T09:56:34.720Z,973.37
2018-01-16T09:57:34.715Z,973.31
2018-01-16T09:58:34.713Z,973.43
2018-01-16T09:59:34.711Z,973.42
2018-01-16T10:00:34.708Z,973.41
2018-01-16T10:01:34.698Z,973.35
2018-01-16T10:02:34.695Z,973.18
2018-01-16T10:03:34.689Z,973.11
2018-01-16T10:04:34.685Z,973.05
2018-01-16T10:05:34.684Z,973.07
2018-01-16T10:06:34.680Z,973.18
2018-01-16T10:07:34.682Z,973.23
2018-01-16T10:08:34.668Z,973.21
2018-01-16T10:09:34.666Z,973.11
2018-01-16T10:10:34.667Z,973.14
2018-01-16T10:11:34.654Z,973.07
2018-01-16T10:12:34.650Z,973.1
2018-01-16T10:13:34.648Z,973.09
2018-01-16T10:14:34.653Z,973
2018-01-16T10:15:34.638Z,972.99
2018-01-16T10:16:34.633Z,972.96
2018-01-16T10:17:34.640Z,972.93
2018-01-16T10:18:35.426Z,972.95
2018-01-16T10:19:34.621Z,972.95
2018-01-16T10:20:34.620Z,972.87
2018-01-16T10:21:34.613Z,972.81
2018-01-16T10:22:34.608Z,972.83
2018-01-16T10:53:03.670Z,972.83
2018-01-16T10:54:03.657Z,972.87
2018-01-16T10:55:03.645Z,972.88
2018-01-16T10:56:03.637Z,972.96
2018-01-16T10:57:03.623Z,973
2018-01-16T10:58:03.615Z,973.01
2018-01-16T10:59:03.607Z,972.97
2018-01-16T11:00:03.597Z,973
2018-01-16T11:01:03.590Z,973.07
2018-01-16T11:02:03.583Z,972.94
2018-01-16T11:03:03.572Z,972.93
2018-01-16T11:04:03.566Z,972.85
2018-01-16T11:05:03.560Z,972.83
2018-01-16T11:06:03.553Z,972.92
2018-01-16T11:07:03.546Z,972.89
2018-01-16T11:08:06.151Z,972.92
2018-01-16T11:09:03.534Z,972.89
2018-01-16T11:10:03.531Z,972.87
2018-01-16T11:11:03.522Z,972.86
2018-01-16T11:12:03.517Z,972.87
2018-01-16T11:13:03.515Z,972.85
2018-01-16T11:14:03.506Z,972.81
2018-01-16T11:15:03.502Z,972.72
2018-01-16T11:16:03.495Z,972.68
2018-01-16T11:17:03.490Z,972.66
2018-01-16T11:18:03.486Z,972.65
2018-01-16T11:19:03.481Z,972.59
2018-01-16T11:20:03.477Z,972.55
2018-01-16T11:21:03.471Z,972.53
2018-01-16T11:22:03.465Z,972.52
2018-01-16T11:23:03.461Z,972.45
2018-01-16T11:24:03.473Z,972.5
2018-01-16T11:25:03.453Z,972.46
2018-01-16T11:26:03.447Z,972.4
2018-01-16T11:27:03.445Z,972.41
2018-01-16T11:28:03.438Z,972.53
2018-01-16T11:29:03.441Z,972.55
2018-01-16T11:30:03.430Z,972.49
2018-01-16T11:31:03.425Z,972.46
2018-01-16T11:32:03.420Z,972.46
2018-01-16T11:33:03.415Z,972.45
2018-01-16T11:34:03.413Z,972.49
2018-01-16T11:35:03.415Z,972.45
2018-01-16T11:36:03.404Z,972.43
2018-01-16T11:37:03.401Z,972.44
2018-01-16T11:38:03.393Z,972.32
2018-01-16T11:39:03.387Z,972.29
2018-01-16T11:40:03.386Z,972.37
2018-01-16T11:41:03.379Z,972.35
2018-01-16T11:42:03.374Z,972.29
2018-01-16T11:43:03.369Z,972.28
2018-01-16T11:44:03.367Z,972.32
2018-01-16T11:45:03.363Z,972.31
2018-01-16T11:46:03.359Z,972.32
2018-01-16T11:47:03.348Z,972.32
2018-01-16T11:48:03.349Z,972.33
2018-01-16T11:49:03.354Z,972.41
2018-01-16T11:50:03.355Z,972.42
2018-01-16T11:51:03.330Z,972.44
2018-01-16T11:52:03.327Z,972.44
2018-01-16T11:53:03.334Z,972.47
2018-01-16T11:54:03.335Z,972.4
2018-01-16T11:55:03.317Z,972.42
2018-01-16T11:56:03.305Z,972.41
2018-01-16T11:57:03.302Z,972.39
2018-01-16T11:58:03.296Z,972.39
2018-01-16T11:59:03.296Z,972.36
2018-01-16T12:00:03.288Z,972.32
2018-01-16T12:01:03.282Z,972.29
2018-01-16T12:02:03.285Z,972.28
2018-01-16T12:03:03.282Z,972.15
2018-01-16T12:04:03.270Z,972.27
2018-01-16T12:05:03.264Z,972.24
2018-01-16T12:06:03.257Z,972.22
2018-01-16T12:07:03.253Z,972.22
2018-01-16T12:08:03.250Z,972.2
2018-01-16T12:09:03.244Z,972.3
2018-01-16T12:10:03.245Z,972.36
2018-01-16T12:11:03.234Z,972.26
2018-01-16T12:12:03.228Z,972.31
2018-01-16T12:13:03.231Z,972.3
2018-01-16T12:14:03.228Z,972.28
2018-01-16T12:15:03.212Z,972.31
2018-01-16T12:16:03.208Z,972.31
2018-01-16T12:17:03.203Z,972.44
2018-01-16T12:18:03.198Z,972.47
2018-01-16T12:19:03.211Z,972.45
2018-01-16T12:20:03.188Z,972.47
2018-01-16T12:21:03.182Z,972.42
2018-01-16T12:22:03.178Z,972.46
2018-01-16T12:23:03.174Z,972.5
2018-01-16T12:24:03.169Z,972.62
2018-01-16T12:25:03.163Z,972.64
2018-01-16T12:26:03.158Z,972.73
2018-01-16T12:27:03.155Z,972.79
2018-01-16T12:28:03.149Z,972.92
2018-01-16T12:29:03.145Z,973.14
2018-01-16T12:30:03.140Z,973.35
2018-01-16T12:31:03.138Z,973.32
2018-01-16T12:32:03.128Z,973.52
2018-01-16T12:33:03.125Z,973.51
2018-01-16T12:34:03.119Z,973.52
2018-01-16T12:35:03.114Z,973.44
2018-01-16T12:36:03.106Z,973.61
2018-01-16T12:37:03.100Z,973.55
2018-01-16T12:38:03.095Z,973.58
2018-01-16T12:39:03.089Z,973.59
2018-01-16T12:40:03.093Z,973.48
2018-01-16T12:41:03.081Z,973.37
2018-01-16T12:42:03.070Z,973.36
2018-01-16T12:43:03.073Z,973.52
2018-01-16T12:44:03.065Z,973.62
2018-01-16T12:45:03.054Z,973.65
2018-01-16T12:46:03.049Z,973.6
2018-01-16T12:47:03.062Z,973.77
2018-01-16T12:48:03.036Z,973.59
2018-01-16T12:49:03.028Z,973.61
2018-01-16T12:50:03.030Z,973.47
2018-01-16T12:51:03.017Z,973.43
2018-01-16T12:52:03.014Z,973.47
2018-01-16T12:53:03.014Z,973.58
2018-01-16T12:54:03.001Z,973.61
2018-01-16T12:55:02.991Z,973.75
2018-01-16T12:56:02.984Z,973.75
2018-01-16T12:57:02.976Z,973.77
2018-01-16T12:58:02.970Z,973.71
2018-01-16T12:59:02.966Z,973.81
2018-01-16T13:00:02.966Z,973.94
2018-01-16T13:01:02.958Z,973.93